Kirkstone Pass, United Kingdom
Current Conditions -  °F | °C
As of 12:50 PM on Friday 31 Oct 2014 (Local Time) from EGNC Reporting Station
Scattered Clouds Scattered Clouds  
Wind Chill: 64°   Ceiling: Unl
Heat Index: 64°   Visibility: 6mi
Dew Point: 59°   Wind: 6mph
Humidity: 83%   Direction: 180°S
Pressure: 29.8"   Gusts: NA
Location:  54.47°N, 2.92°W
Report Text: EGNC 311250Z 18005KT 120V230 9999 FEW020 SCT026 18/15 Q1009
Loading
Personal Weather Stations






























Interactive Weather Map
Tropical Storm Tracking
New forecast layout! Learn more

10-Day Weather Forecast

Advertisements
Track Severe Weather on mobile